Crumlin, United Kingdom
Current Conditions -  °F | °C
As of 4:50 PM on Thursday 30 Oct 2014 (Local Time) from EGAA Reporting Station
Broken Clouds Broken Clouds  
Wind Chill: 59°   Ceiling: 2000
Heat Index: 59°   Visibility: 6mi
Dew Point: 55°   Wind: 8mph
Humidity: 88%   Direction: 150°SSE
Pressure: 29.8"   Gusts: NA
Location:  54.62°N, 6.22°W
Report Text: EGAA 301650Z 15007KT 9999 BKN020 15/13 Q1009
Loading
Personal Weather Stations






























Interactive Weather Map New forecast layout! Learn more

10-Day Weather Forecast

Advertisements
Track Severe Weather on mobile